createdAt,value
2023-01-19T00:01:29.316Z,100.00
2023-01-19T00:03:57.316Z,100.00
2023-01-19T00:06:25.264Z,100.00
2023-01-19T00:08:53.239Z,100.00
2023-01-19T00:11:21.410Z,100.00
2023-01-19T00:13:51.125Z,100.00
2023-01-19T00:16:22.996Z,100.00
2023-01-19T00:18:54.016Z,100.00
2023-01-19T00:21:22.750Z,100.00
2023-01-19T00:23:52.652Z,100.00
2023-01-19T00:26:22.349Z,100.00
2023-01-19T00:28:51.120Z,100.00
2023-01-19T00:31:21.848Z,100.00
2023-01-19T00:33:51.630Z,100.00
2023-01-19T00:36:21.735Z,100.00
2023-01-19T00:38:49.621Z,100.00
2023-01-19T00:41:17.633Z,100.00
2023-01-19T00:43:44.848Z,100.00
2023-01-19T00:46:12.857Z,100.00
2023-01-19T00:48:40.819Z,100.00
2023-01-19T00:51:08.938Z,100.00
2023-01-19T00:53:38.260Z,100.00
2023-01-19T00:56:06.908Z,100.00
2023-01-19T00:58:34.823Z,100.00
2023-01-19T01:01:04.872Z,100.00
2023-01-19T01:03:33.646Z,100.00
2023-01-19T01:06:01.669Z,100.00
2023-01-19T01:08:29.809Z,100.00
2023-01-19T01:10:59.202Z,100.00
2023-01-19T01:13:28.326Z,100.00
2023-01-19T01:15:58.238Z,100.00
2023-01-19T01:18:26.604Z,100.00
2023-01-19T01:20:56.315Z,100.00
2023-01-19T01:23:24.456Z,100.00
2023-01-19T01:25:52.380Z,100.00
2023-01-19T01:28:21.760Z,100.00
2023-01-19T01:30:49.745Z,100.00
2023-01-19T01:33:40.404Z,100.00
2023-01-19T01:36:06.291Z,100.00
2023-01-19T01:38:34.428Z,100.00
2023-01-19T01:41:02.407Z,100.00
2023-01-19T01:43:45.717Z,100.00
2023-01-19T01:46:16.293Z,100.00
2023-01-19T01:48:49.966Z,100.00
2023-01-19T01:51:26.425Z,100.00
2023-01-19T01:54:08.020Z,100.00
2023-01-19T01:56:38.928Z,100.00
2023-01-19T01:59:13.583Z,100.00
2023-01-19T02:01:58.839Z,100.00
2023-01-19T02:04:28.227Z,100.00
2023-01-19T02:07:13.543Z,100.00
2023-01-19T02:09:59.077Z,100.00
2023-01-19T02:12:44.690Z,100.00
2023-01-19T02:15:20.266Z,100.00
2023-01-19T02:17:48.976Z,100.00
2023-01-19T02:20:17.817Z,100.00
2023-01-19T02:22:51.007Z,100.00
2023-01-19T02:25:21.200Z,100.00
2023-01-19T02:27:50.258Z,100.00
2023-01-19T02:30:18.981Z,100.00
2023-01-19T02:32:47.106Z,100.00
2023-01-19T02:35:15.271Z,100.00
2023-01-19T02:37:45.546Z,100.00
2023-01-19T02:40:16.325Z,100.00
2023-01-19T02:42:49.758Z,100.00
2023-01-19T02:45:21.730Z,100.00
2023-01-19T02:47:52.607Z,100.00
2023-01-19T02:50:41.833Z,100.00
2023-01-19T02:54:03.412Z,100.00
2023-01-19T02:57:06.791Z,100.00
2023-01-19T02:59:49.218Z,100.00
2023-01-19T03:02:29.080Z,100.00
2023-01-19T03:05:17.380Z,100.00
2023-01-19T03:07:54.708Z,100.00
2023-01-19T03:10:33.151Z,100.00
2023-01-19T03:13:08.410Z,100.00
2023-01-19T03:15:44.876Z,100.00
2023-01-19T03:18:15.965Z,100.00
2023-01-19T03:20:45.528Z,100.00
2023-01-19T03:23:16.709Z,100.00
2023-01-19T03:25:47.758Z,100.00
2023-01-19T03:28:18.540Z,100.00
2023-01-19T03:30:54.750Z,100.00
2023-01-19T03:33:28.016Z,100.00
2023-01-19T03:36:03.795Z,100.00
2023-01-19T03:38:35.632Z,100.00
2023-01-19T03:41:05.935Z,100.00
2023-01-19T03:43:36.454Z,100.00
2023-01-19T03:46:07.573Z,100.00
2023-01-19T03:48:35.861Z,100.00
2023-01-19T03:51:05.449Z,100.00
2023-01-19T03:53:33.524Z,100.00
2023-01-19T03:56:01.798Z,100.00
2023-01-19T03:58:29.751Z,100.00
2023-01-19T04:00:57.781Z,100.00
2023-01-19T04:03:27.116Z,100.00
2023-01-19T04:05:57.522Z,100.00
2023-01-19T04:08:25.444Z,100.00
2023-01-19T04:10:53.411Z,100.00
2023-01-19T04:13:21.381Z,100.00
2023-01-19T04:15:49.380Z,100.00
2023-01-19T04:18:17.416Z,100.00
2023-01-19T04:20:46.960Z,100.00
2023-01-19T04:23:14.835Z,100.00
2023-01-19T04:25:42.766Z,100.00
2023-01-19T04:28:10.641Z,100.00
2023-01-19T04:30:38.913Z,100.00
2023-01-19T04:33:07.105Z,100.00
2023-01-19T04:35:35.585Z,100.00
2023-01-19T04:38:04.971Z,100.00
2023-01-19T04:40:32.977Z,100.00
2023-01-19T04:43:01.356Z,100.00
2023-01-19T04:45:29.498Z,100.00
2023-01-19T04:47:57.479Z,100.00
2023-01-19T04:50:25.620Z,100.00
2023-01-19T04:52:53.615Z,100.00
2023-01-19T04:55:22.953Z,100.00
2023-01-19T04:57:50.989Z,100.00
2023-01-19T05:00:20.882Z,100.00
2023-01-19T05:02:49.102Z,100.00
2023-01-19T05:05:17.637Z,100.00
2023-01-19T05:07:45.731Z,100.00
2023-01-19T05:10:13.931Z,100.00
2023-01-19T05:12:43.334Z,100.00
2023-01-19T05:15:12.026Z,100.00
2023-01-19T05:17:39.912Z,100.00
2023-01-19T05:20:10.463Z,100.00
2023-01-19T05:22:38.490Z,100.00
2023-01-19T05:25:08.819Z,100.00
2023-01-19T05:27:37.156Z,100.00
2023-01-19T05:30:07.972Z,100.00
2023-01-19T05:32:35.966Z,100.00
2023-01-19T05:35:03.962Z,100.00
2023-01-19T05:37:32.716Z,100.00
2023-01-19T05:40:00.691Z,100.00
2023-01-19T05:42:28.944Z,100.00
2023-01-19T05:44:57.479Z,100.00
2023-01-19T05:47:27.019Z,100.00
2023-01-19T05:49:55.252Z,100.00
2023-01-19T05:52:25.008Z,100.00
2023-01-19T05:54:55.179Z,100.00
2023-01-19T05:57:23.369Z,100.00
2023-01-19T05:59:51.467Z,100.00
2023-01-19T06:02:19.424Z,100.00
2023-01-19T06:04:48.754Z,100.00
2023-01-19T06:07:16.718Z,100.00
2023-01-19T06:09:44.687Z,100.00
2023-01-19T06:12:12.589Z,100.00
2023-01-19T06:14:40.963Z,100.00
2023-01-19T06:17:08.900Z,100.00
2023-01-19T06:19:36.942Z,100.00
2023-01-19T06:22:06.390Z,100.00
2023-01-19T06:24:34.358Z,100.00
2023-01-19T06:27:02.265Z,100.00
2023-01-19T06:29:30.202Z,100.00
2023-01-19T06:31:58.253Z,100.00
2023-01-19T06:34:29.092Z,100.00
2023-01-19T06:36:57.335Z,100.00
2023-01-19T06:39:27.541Z,100.00
2023-01-19T06:41:55.527Z,100.00
2023-01-19T06:44:23.487Z,100.00
2023-01-19T06:46:51.399Z,100.00
2023-01-19T06:49:39.357Z,100.00
2023-01-19T06:52:07.922Z,100.00
2023-01-19T06:54:37.380Z,100.00
2023-01-19T06:57:06.149Z,100.00
2023-01-19T06:59:34.146Z,100.00
2023-01-19T07:02:26.461Z,100.00
2023-01-19T07:04:50.064Z,100.00
2023-01-19T07:07:18.025Z,100.00
2023-01-19T07:09:47.411Z,100.00
2023-01-19T07:12:16.047Z,100.00
2023-01-19T07:14:44.220Z,100.00
2023-01-19T07:17:13.438Z,100.00
2023-01-19T07:19:41.420Z,100.00
2023-01-19T07:22:09.331Z,100.00
2023-01-19T07:24:38.260Z,100.00
2023-01-19T07:27:07.706Z,100.00
2023-01-19T07:29:35.664Z,100.00
2023-01-19T07:32:03.613Z,100.00
2023-01-19T07:34:31.811Z,99.86
2023-01-19T07:36:59.762Z,100.00
2023-01-19T07:39:27.947Z,100.00
2023-01-19T07:41:55.825Z,99.51
2023-01-19T07:44:25.086Z,99.31
2023-01-19T07:46:52.995Z,99.76
2023-01-19T07:49:21.768Z,100.00
2023-01-19T07:51:49.731Z,99.60
2023-01-19T07:54:17.627Z,99.08
2023-01-19T07:56:45.584Z,98.93
2023-01-19T07:59:13.664Z,98.99
2023-01-19T08:01:43.182Z,99.47
2023-01-19T08:04:11.688Z,99.74
2023-01-19T08:06:41.617Z,98.81
2023-01-19T08:09:10.114Z,99.29
2023-01-19T08:11:38.088Z,98.13
2023-01-19T08:14:07.939Z,99.03
2023-01-19T08:16:36.186Z,98.72
2023-01-19T08:19:05.735Z,98.54
2023-01-19T08:21:35.674Z,97.38
2023-01-19T08:24:03.667Z,97.42
2023-01-19T08:26:33.689Z,97.41
2023-01-19T08:29:03.316Z,98.42
2023-01-19T08:31:31.656Z,97.94
2023-01-19T08:34:00.191Z,97.27
2023-01-19T08:36:29.532Z,97.92
2023-01-19T08:38:57.456Z,96.46
2023-01-19T08:41:25.352Z,96.50
2023-01-19T08:43:53.271Z,96.37
2023-01-19T08:46:22.016Z,95.38
2023-01-19T08:48:50.550Z,95.07
2023-01-19T08:51:19.256Z,95.10
2023-01-19T08:53:48.691Z,94.95
2023-01-19T08:56:18.011Z,96.16
2023-01-19T08:58:53.647Z,94.71
2023-01-19T09:01:31.517Z,93.24
2023-01-19T09:03:59.514Z,93.58
2023-01-19T09:06:28.495Z,93.27
2023-01-19T09:08:58.170Z,93.13
2023-01-19T09:11:26.101Z,92.87
2023-01-19T09:13:54.234Z,93.66
2023-01-19T09:16:22.382Z,93.31
2023-01-19T09:18:50.348Z,92.28
2023-01-19T09:21:18.729Z,93.33
2023-01-19T09:23:46.613Z,92.60
2023-01-19T09:26:16.980Z,91.07
2023-01-19T09:28:44.908Z,91.43
2023-01-19T09:31:13.423Z,90.05
2023-01-19T09:33:41.960Z,91.85
2023-01-19T09:36:34.747Z,90.90
2023-01-19T09:44:20.599Z,91.12
2023-01-19T09:46:48.559Z,91.05
2023-01-19T09:49:18.442Z,91.76
2023-01-19T09:51:49.143Z,90.77
2023-01-19T09:54:19.618Z,92.97
2023-01-19T09:56:52.433Z,92.91
2023-01-19T09:59:25.319Z,93.36
2023-01-19T10:02:07.049Z,92.06
2023-01-19T10:04:51.332Z,90.09
2023-01-19T10:07:24.740Z,91.38
2023-01-19T10:13:39.889Z,90.99
2023-01-19T10:16:23.320Z,90.83
2023-01-19T10:19:12.990Z,91.49
2023-01-19T10:21:44.481Z,91.38
2023-01-19T10:24:19.516Z,91.54
2023-01-19T10:26:49.937Z,91.44
2023-01-19T10:29:26.109Z,90.59
2023-01-19T10:35:23.520Z,92.25
2023-01-19T10:37:52.987Z,92.09
2023-01-19T10:40:33.252Z,91.47
2023-01-19T10:43:01.671Z,91.46
2023-01-19T10:45:32.278Z,92.07
2023-01-19T10:48:07.489Z,93.11
2023-01-19T10:50:39.896Z,93.11
2023-01-19T10:53:19.216Z,92.82
2023-01-19T10:55:47.331Z,93.09
2023-01-19T10:58:29.781Z,92.52
2023-01-19T11:01:14.749Z,92.73
2023-01-19T11:03:44.529Z,93.90
2023-01-19T11:06:25.403Z,94.12
2023-01-19T11:08:54.775Z,93.35
2023-01-19T11:11:24.736Z,95.48
2023-01-19T11:14:10.140Z,93.35
2023-01-19T11:16:40.159Z,93.77
2023-01-19T11:19:20.292Z,92.78
2023-01-19T11:21:48.506Z,93.67
2023-01-19T11:24:16.674Z,92.88
2023-01-19T11:26:48.043Z,93.66
2023-01-19T11:29:19.967Z,93.17
2023-01-19T11:31:49.082Z,93.00
2023-01-19T11:34:32.903Z,94.50
2023-01-19T11:37:03.045Z,92.37
2023-01-19T11:39:33.157Z,92.10
2023-01-19T11:42:04.394Z,92.50
2023-01-19T11:44:36.532Z,92.13
2023-01-19T11:47:09.534Z,91.97
2023-01-19T11:49:45.345Z,90.71
2023-01-19T11:52:21.319Z,89.74
2023-01-19T11:54:57.766Z,91.34
2023-01-19T11:57:26.082Z,89.47
2023-01-19T11:59:56.376Z,89.54
2023-01-19T12:02:29.693Z,88.93
2023-01-19T12:05:05.759Z,88.82
2023-01-19T12:07:37.680Z,90.02
2023-01-19T12:10:20.970Z,89.06
2023-01-19T12:12:49.566Z,91.18
2023-01-19T12:15:31.798Z,87.80
2023-01-19T12:18:03.395Z,90.54
2023-01-19T12:20:38.727Z,90.85
2023-01-19T12:23:21.074Z,89.17
2023-01-19T12:26:00.773Z,87.94
2023-01-19T12:28:31.517Z,89.13
2023-01-19T12:31:02.139Z,89.83
2023-01-19T12:33:38.155Z,91.38
2023-01-19T12:36:14.419Z,91.85
2023-01-19T12:38:47.570Z,91.01
2023-01-19T12:41:24.832Z,91.34
2023-01-19T12:44:25.339Z,91.72
2023-01-19T12:46:57.443Z,91.36
2023-01-19T12:49:29.249Z,91.19
2023-01-19T12:52:17.406Z,91.04
2023-01-19T12:54:54.524Z,90.64
2023-01-19T12:57:26.764Z,90.51
2023-01-19T12:59:59.700Z,90.01
2023-01-19T13:02:47.037Z,90.12
2023-01-19T13:05:18.746Z,90.96
2023-01-19T13:08:17.087Z,90.34
2023-01-19T13:11:19.736Z,89.50
2023-01-19T13:14:27.621Z,89.48
2023-01-19T13:17:05.595Z,89.92
2023-01-19T13:19:48.236Z,89.96
2023-01-19T13:23:04.832Z,90.05
2023-01-19T13:25:36.729Z,90.56
2023-01-19T13:28:12.091Z,90.63
2023-01-19T13:30:50.107Z,89.51
2023-01-19T13:33:22.909Z,91.47
2023-01-19T13:35:58.684Z,90.13
2023-01-19T13:38:29.808Z,88.42
2023-01-19T13:41:03.226Z,90.05
2023-01-19T13:43:37.142Z,89.95
2023-01-19T13:46:05.563Z,89.87
2023-01-19T13:48:34.228Z,89.41
2023-01-19T13:51:05.176Z,89.89
2023-01-19T13:53:34.244Z,90.76
2023-01-19T13:56:17.644Z,90.09
2023-01-19T13:58:58.153Z,90.26
2023-01-19T14:01:29.258Z,89.80
2023-01-19T14:03:58.064Z,90.18
2023-01-19T14:06:34.787Z,90.23
2023-01-19T14:09:23.998Z,90.38
2023-01-19T14:12:17.629Z,89.79
2023-01-19T14:14:48.386Z,90.31
2023-01-19T14:17:25.271Z,90.87
2023-01-19T14:19:54.870Z,91.60
2023-01-19T14:22:22.929Z,92.11
2023-01-19T14:24:50.891Z,91.89
2023-01-19T14:27:25.313Z,90.27
2023-01-19T14:29:55.020Z,89.74
2023-01-19T14:32:24.464Z,91.53
2023-01-19T14:35:16.376Z,89.67
2023-01-19T14:37:50.178Z,91.09
2023-01-19T14:40:21.912Z,90.29
2023-01-19T14:42:54.564Z,90.53
2023-01-19T14:45:26.627Z,89.58
2023-01-19T14:47:57.887Z,89.09
2023-01-19T14:50:27.830Z,89.41
2023-01-19T14:53:00.394Z,88.68
2023-01-19T14:55:34.863Z,90.14
2023-01-19T14:58:11.201Z,90.39
2023-01-19T15:00:39.362Z,88.93
2023-01-19T15:03:07.458Z,90.17
2023-01-19T15:05:35.831Z,90.94
2023-01-19T15:08:05.412Z,90.44
2023-01-19T15:10:33.728Z,90.44
2023-01-19T15:13:02.145Z,91.50
2023-01-19T15:15:33.282Z,89.71
2023-01-19T15:18:03.783Z,87.83
2023-01-19T15:20:32.140Z,89.23
2023-01-19T15:23:00.093Z,88.39
2023-01-19T15:25:28.058Z,89.63
2023-01-19T15:27:59.850Z,89.67
2023-01-19T15:30:31.055Z,90.27
2023-01-19T15:33:20.809Z,88.79
2023-01-19T15:35:49.105Z,89.16
2023-01-19T15:38:17.101Z,89.10
2023-01-19T15:40:45.008Z,89.35
2023-01-19T15:43:12.959Z,89.36
2023-01-19T15:45:43.519Z,90.51
2023-01-19T15:48:13.205Z,90.97
2023-01-19T15:50:44.098Z,90.61
2023-01-19T15:53:15.865Z,90.73
2023-01-19T15:55:43.832Z,92.28
2023-01-19T15:58:13.982Z,92.21
2023-01-19T16:00:42.556Z,92.39
2023-01-19T16:03:11.883Z,92.80
2023-01-19T16:05:43.751Z,93.45
2023-01-19T16:08:13.383Z,93.23
2023-01-19T16:10:42.188Z,94.15
2023-01-19T16:13:10.851Z,94.55
2023-01-19T16:15:42.330Z,94.21
2023-01-19T16:18:10.319Z,94.17
2023-01-19T16:20:38.309Z,93.88
2023-01-19T16:23:21.363Z,94.91
2023-01-19T16:25:58.910Z,94.40
2023-01-19T16:28:27.731Z,95.17
2023-01-19T16:30:55.770Z,95.53
2023-01-19T16:33:23.769Z,96.08
2023-01-19T16:35:51.722Z,96.79
2023-01-19T16:38:20.119Z,97.49
2023-01-19T16:40:48.440Z,96.49
2023-01-19T16:43:18.680Z,97.03
2023-01-19T16:46:01.149Z,98.80
2023-01-19T16:48:29.593Z,99.65
2023-01-19T16:51:02.887Z,100.00
2023-01-19T16:53:31.784Z,100.00
2023-01-19T16:55:59.779Z,100.00
2023-01-19T16:58:29.136Z,100.00
2023-01-19T17:00:57.140Z,100.00
2023-01-19T17:03:25.142Z,100.00
2023-01-19T17:05:53.111Z,100.00
2023-01-19T17:08:21.952Z,99.90
2023-01-19T17:10:49.893Z,98.80
2023-01-19T17:13:18.012Z,100.00
2023-01-19T17:15:47.365Z,100.00
2023-01-19T17:18:15.316Z,100.00
2023-01-19T17:20:43.244Z,100.00
2023-01-19T17:23:11.170Z,99.79
2023-01-19T17:25:39.150Z,100.00
2023-01-19T17:28:07.064Z,100.00
2023-01-19T17:30:35.104Z,100.00
2023-01-19T17:33:04.509Z,100.00
2023-01-19T17:35:35.191Z,100.00
2023-01-19T17:38:03.103Z,100.00
2023-01-19T17:40:31.485Z,100.00
2023-01-19T17:42:59.698Z,100.00
2023-01-19T17:45:27.729Z,100.00
2023-01-19T17:47:55.619Z,100.00
2023-01-19T17:50:24.977Z,100.00
2023-01-19T17:52:52.952Z,100.00
2023-01-19T17:55:21.020Z,100.00
2023-01-19T17:57:49.071Z,100.00
2023-01-19T18:00:18.083Z,100.00
2023-01-19T18:02:46.081Z,100.00
2023-01-19T18:05:14.815Z,100.00
2023-01-19T18:07:44.215Z,100.00
2023-01-19T18:10:13.892Z,100.00
2023-01-19T18:12:42.044Z,100.00
2023-01-19T18:15:10.886Z,100.00
2023-01-19T18:17:40.816Z,100.00
2023-01-19T18:20:10.319Z,100.00
2023-01-19T18:22:38.394Z,100.00
2023-01-19T18:25:08.458Z,100.00
2023-01-19T18:27:36.367Z,100.00
2023-01-19T18:30:04.482Z,100.00
2023-01-19T18:32:32.405Z,100.00
2023-01-19T18:35:00.976Z,100.00
2023-01-19T18:37:28.929Z,100.00
2023-01-19T18:39:59.781Z,100.00
2023-01-19T18:42:29.367Z,100.00
2023-01-19T18:44:57.383Z,100.00
2023-01-19T18:47:25.451Z,100.00
2023-01-19T18:49:53.416Z,100.00
2023-01-19T18:52:21.376Z,100.00
2023-01-19T18:54:49.575Z,100.00
2023-01-19T18:57:17.964Z,100.00
2023-01-19T18:59:48.883Z,100.00
2023-01-19T19:02:16.855Z,100.00
2023-01-19T19:04:44.867Z,100.00
2023-01-19T19:07:13.443Z,100.00
2023-01-19T19:09:42.742Z,100.00
2023-01-19T19:12:11.026Z,100.00
2023-01-19T19:14:39.417Z,100.00
2023-01-19T19:17:10.344Z,100.00
2023-01-19T19:19:40.823Z,100.00
2023-01-19T19:22:09.069Z,100.00
2023-01-19T19:24:38.241Z,100.00
2023-01-19T19:27:06.923Z,100.00
2023-01-19T19:29:35.240Z,100.00
2023-01-19T19:32:03.266Z,100.00
2023-01-19T19:34:33.383Z,100.00
2023-01-19T19:37:01.531Z,100.00
2023-01-19T19:39:29.750Z,100.00
2023-01-19T19:41:57.628Z,100.00
2023-01-19T19:44:25.578Z,100.00
2023-01-19T19:46:53.522Z,100.00
2023-01-19T19:49:21.555Z,100.00
2023-01-19T19:51:51.000Z,100.00
2023-01-19T19:54:18.906Z,100.00
2023-01-19T19:56:48.443Z,100.00
2023-01-19T19:59:16.356Z,100.00
2023-01-19T20:01:45.393Z,100.00
2023-01-19T20:04:14.814Z,100.00
2023-01-19T20:06:44.923Z,100.00
2023-01-19T20:09:15.231Z,100.00
2023-01-19T20:11:44.277Z,100.00
2023-01-19T20:14:14.382Z,100.00
2023-01-19T20:16:42.350Z,100.00
2023-01-19T20:19:10.605Z,100.00
2023-01-19T20:21:41.883Z,100.00
2023-01-19T20:24:13.892Z,100.00
2023-01-19T20:26:45.186Z,100.00
2023-01-19T20:29:13.125Z,100.00
2023-01-19T20:31:44.468Z,100.00
2023-01-19T20:34:14.881Z,100.00
2023-01-19T20:36:44.356Z,100.00
2023-01-19T20:39:12.810Z,100.00
2023-01-19T20:41:45.179Z,100.00
2023-01-19T20:44:16.726Z,100.00
2023-01-19T20:46:44.679Z,100.00
2023-01-19T20:49:12.991Z,100.00
2023-01-19T20:51:43.468Z,100.00
2023-01-19T20:54:12.079Z,100.00
2023-01-19T20:56:42.822Z,100.00
2023-01-19T20:59:12.414Z,100.00
2023-01-19T21:01:42.596Z,100.00
2023-01-19T21:04:13.771Z,100.00
2023-01-19T21:06:42.625Z,100.00
2023-01-19T21:09:14.248Z,100.00
2023-01-19T21:11:44.769Z,100.00
2023-01-19T21:14:17.686Z,100.00
2023-01-19T21:16:48.602Z,100.00
2023-01-19T21:19:18.327Z,100.00
2023-01-19T21:21:48.738Z,100.00
2023-01-19T21:24:16.709Z,100.00
2023-01-19T21:26:48.340Z,100.00
2023-01-19T21:29:16.374Z,100.00
2023-01-19T21:31:47.801Z,100.00
2023-01-19T21:34:17.929Z,100.00
2023-01-19T21:36:47.931Z,100.00
2023-01-19T21:39:17.374Z,100.00
2023-01-19T21:41:45.472Z,100.00
2023-01-19T21:44:14.442Z,100.00
2023-01-19T21:46:43.520Z,100.00
2023-01-19T21:49:18.418Z,100.00
2023-01-19T21:51:47.985Z,100.00
2023-01-19T21:54:16.070Z,100.00
2023-01-19T21:56:44.197Z,100.00
2023-01-19T21:59:14.777Z,100.00
2023-01-19T22:01:44.515Z,100.00
2023-01-19T22:04:12.815Z,100.00
2023-01-19T22:06:42.183Z,100.00
2023-01-19T22:09:10.128Z,100.00
2023-01-19T22:11:38.099Z,100.00
2023-01-19T22:14:06.370Z,100.00
2023-01-19T22:16:34.370Z,100.00
2023-01-19T22:19:02.740Z,100.00
2023-01-19T22:21:33.467Z,100.00
2023-01-19T22:24:04.807Z,100.00
2023-01-19T22:26:34.869Z,100.00
2023-01-19T22:31:40.893Z,100.00
2023-01-19T22:34:10.427Z,100.00
2023-01-19T22:36:39.459Z,100.00
2023-01-19T22:39:10.687Z,100.00
2023-01-19T22:41:40.708Z,100.00
2023-01-19T22:44:11.567Z,100.00
2023-01-19T22:46:39.876Z,100.00
2023-01-19T22:49:08.842Z,100.00
2023-01-19T22:51:37.413Z,100.00
2023-01-19T22:54:05.805Z,100.00
2023-01-19T22:56:37.113Z,100.00
2023-01-19T22:59:05.674Z,100.00
2023-01-19T23:01:36.128Z,100.00
2023-01-19T23:04:05.656Z,100.00
2023-01-19T23:06:35.150Z,100.00
2023-01-19T23:09:05.561Z,100.00
2023-01-19T23:11:37.472Z,100.00
2023-01-19T23:14:07.060Z,100.00
2023-01-19T23:16:35.146Z,100.00
2023-01-19T23:19:03.316Z,100.00
2023-01-19T23:21:33.267Z,100.00
2023-01-19T23:24:02.961Z,100.00
2023-01-19T23:26:38.053Z,100.00
2023-01-19T23:29:09.493Z,100.00
2023-01-19T23:31:38.811Z,100.00
2023-01-19T23:34:08.517Z,100.00
2023-01-19T23:36:38.400Z,100.00
2023-01-19T23:39:09.941Z,100.00
2023-01-19T23:41:37.960Z,100.00
2023-01-19T23:44:07.354Z,100.00
2023-01-19T23:46:35.459Z,100.00
2023-01-19T23:49:03.456Z,100.00
2023-01-19T23:51:33.193Z,100.00
2023-01-19T23:54:01.908Z,100.00
2023-01-19T23:56:32.945Z,100.00
2023-01-19T23:59:03.710Z,100.00
